sensor_id;sensor_type;location;lat;lon;timestamp;P1;durP1;ratioP1;P2;durP2;ratioP2
26963;SDS011;14521;48.148;-1.656;2023-04-24T00:00:02;2.72;;;2.42;;
26963;SDS011;14521;48.148;-1.656;2023-04-24T00:03:28;2.33;;;2.13;;
26963;SDS011;14521;48.148;-1.656;2023-04-24T00:06:51;3.83;;;2.40;;
26963;SDS011;14521;48.148;-1.656;2023-04-24T00:10:15;2.30;;;1.92;;
26963;SDS011;14521;48.148;-1.656;2023-04-24T00:13:38;2.63;;;1.90;;
26963;SDS011;14521;48.148;-1.656;2023-04-24T00:17:01;2.10;;;1.90;;
26963;SDS011;14521;48.148;-1.656;2023-04-24T00:20:27;2.03;;;1.70;;
26963;SDS011;14521;48.148;-1.656;2023-04-24T00:23:54;2.50;;;2.30;;
26963;SDS011;14521;48.148;-1.656;2023-04-24T00:27:16;2.13;;;1.85;;
26963;SDS011;14521;48.148;-1.656;2023-04-24T00:30:38;2.65;;;2.20;;
26963;SDS011;14521;48.148;-1.656;2023-04-24T00:34:02;2.63;;;2.10;;
26963;SDS011;14521;48.148;-1.656;2023-04-24T00:37:25;2.00;;;1.83;;
26963;SDS011;14521;48.148;-1.656;2023-04-24T00:40:47;2.95;;;2.00;;
26963;SDS011;14521;48.148;-1.656;2023-04-24T00:44:11;2.10;;;2.00;;
26963;SDS011;14521;48.148;-1.656;2023-04-24T00:47:33;1.70;;;1.60;;
26963;SDS011;14521;48.148;-1.656;2023-04-24T00:50:56;1.88;;;1.70;;
26963;SDS011;14521;48.148;-1.656;2023-04-24T00:54:20;2.15;;;2.03;;
26963;SDS011;14521;48.148;-1.656;2023-04-24T00:57:42;2.15;;;1.63;;
26963;SDS011;14521;48.148;-1.656;2023-04-24T01:01:06;2.67;;;1.83;;
26963;SDS011;14521;48.148;-1.656;2023-04-24T01:04:29;2.25;;;2.03;;
26963;SDS011;14521;48.148;-1.656;2023-04-24T01:07:51;2.20;;;1.70;;
26963;SDS011;14521;48.148;-1.656;2023-04-24T01:11:14;1.77;;;1.40;;
26963;SDS011;14521;48.148;-1.656;2023-04-24T01:14:36;1.73;;;1.63;;
26963;SDS011;14521;48.148;-1.656;2023-04-24T01:17:59;1.52;;;1.40;;
26963;SDS011;14521;48.148;-1.656;2023-04-24T01:21:22;2.22;;;1.80;;
26963;SDS011;14521;48.148;-1.656;2023-04-24T01:24:49;1.67;;;1.50;;
26963;SDS011;14521;48.148;-1.656;2023-04-24T01:28:11;2.08;;;1.80;;
26963;SDS011;14521;48.148;-1.656;2023-04-24T01:31:35;1.70;;;1.55;;
26963;SDS011;14521;48.148;-1.656;2023-04-24T01:34:58;2.10;;;1.90;;
26963;SDS011;14521;48.148;-1.656;2023-04-24T01:38:21;3.05;;;1.75;;
26963;SDS011;14521;48.148;-1.656;2023-04-24T01:41:43;2.08;;;1.30;;
26963;SDS011;14521;48.148;-1.656;2023-04-24T01:45:06;1.83;;;1.58;;
26963;SDS011;14521;48.148;-1.656;2023-04-24T01:48:29;1.75;;;1.65;;
26963;SDS011;14521;48.148;-1.656;2023-04-24T01:51:52;3.15;;;1.63;;
26963;SDS011;14521;48.148;-1.656;2023-04-24T01:55:15;3.10;;;1.58;;
26963;SDS011;14521;48.148;-1.656;2023-04-24T01:58:39;1.47;;;1.40;;
26963;SDS011;14521;48.148;-1.656;2023-04-24T02:02:02;3.88;;;1.70;;
26963;SDS011;14521;48.148;-1.656;2023-04-24T02:05:24;2.00;;;1.80;;
26963;SDS011;14521;48.148;-1.656;2023-04-24T02:08:47;2.15;;;1.80;;
26963;SDS011;14521;48.148;-1.656;2023-04-24T02:12:09;1.63;;;1.52;;
26963;SDS011;14521;48.148;-1.656;2023-04-24T02:15:31;1.58;;;1.48;;
26963;SDS011;14521;48.148;-1.656;2023-04-24T02:18:54;3.38;;;1.55;;
26963;SDS011;14521;48.148;-1.656;2023-04-24T02:22:18;2.03;;;1.60;;
26963;SDS011;14521;48.148;-1.656;2023-04-24T02:25:41;3.33;;;1.67;;
26963;SDS011;14521;48.148;-1.656;2023-04-24T02:29:03;2.88;;;1.50;;
26963;SDS011;14521;48.148;-1.656;2023-04-24T02:32:25;1.38;;;1.27;;
26963;SDS011;14521;48.148;-1.656;2023-04-24T02:35:52;1.75;;;1.38;;
26963;SDS011;14521;48.148;-1.656;2023-04-24T02:39:15;1.77;;;1.60;;
26963;SDS011;14521;48.148;-1.656;2023-04-24T02:42:40;4.10;;;1.10;;
26963;SDS011;14521;48.148;-1.656;2023-04-24T02:46:02;3.22;;;1.40;;
26963;SDS011;14521;48.148;-1.656;2023-04-24T02:49:25;1.70;;;1.38;;
26963;SDS011;14521;48.148;-1.656;2023-04-24T02:52:48;1.80;;;1.70;;
26963;SDS011;14521;48.148;-1.656;2023-04-24T02:56:10;1.67;;;1.50;;
26963;SDS011;14521;48.148;-1.656;2023-04-24T02:59:34;1.98;;;1.30;;
26963;SDS011;14521;48.148;-1.656;2023-04-24T03:02:56;1.52;;;1.40;;
26963;SDS011;14521;48.148;-1.656;2023-04-24T03:06:18;1.75;;;1.55;;
26963;SDS011;14521;48.148;-1.656;2023-04-24T03:09:42;1.52;;;1.42;;
26963;SDS011;14521;48.148;-1.656;2023-04-24T03:13:05;1.50;;;1.40;;
26963;SDS011;14521;48.148;-1.656;2023-04-24T03:16:28;1.40;;;1.30;;
26963;SDS011;14521;48.148;-1.656;2023-04-24T03:19:51;1.27;;;1.05;;
26963;SDS011;14521;48.148;-1.656;2023-04-24T03:23:13;2.15;;;1.77;;
26963;SDS011;14521;48.148;-1.656;2023-04-24T03:26:36;1.60;;;1.50;;
26963;SDS011;14521;48.148;-1.656;2023-04-24T03:30:12;2.67;;;1.25;;
26963;SDS011;14521;48.148;-1.656;2023-04-24T03:33:40;1.70;;;1.33;;
26963;SDS011;14521;48.148;-1.656;2023-04-24T03:37:03;2.08;;;1.40;;
26963;SDS011;14521;48.148;-1.656;2023-04-24T03:40:26;1.75;;;1.60;;
26963;SDS011;14521;48.148;-1.656;2023-04-24T03:43:52;1.10;;;1.10;;
26963;SDS011;14521;48.148;-1.656;2023-04-24T03:47:14;2.33;;;1.23;;
26963;SDS011;14521;48.148;-1.656;2023-04-24T03:50:37;1.77;;;1.55;;
26963;SDS011;14521;48.148;-1.656;2023-04-24T03:54:01;3.33;;;1.60;;
26963;SDS011;14521;48.148;-1.656;2023-04-24T03:57:27;1.52;;;1.15;;
26963;SDS011;14521;48.148;-1.656;2023-04-24T04:01:01;2.47;;;1.27;;
26963;SDS011;14521;48.148;-1.656;2023-04-24T04:04:46;1.30;;;1.20;;
26963;SDS011;14521;48.148;-1.656;2023-04-24T04:08:09;1.30;;;1.20;;
26963;SDS011;14521;48.148;-1.656;2023-04-24T04:11:32;1.38;;;1.23;;
26963;SDS011;14521;48.148;-1.656;2023-04-24T04:14:54;1.83;;;1.27;;
26963;SDS011;14521;48.148;-1.656;2023-04-24T04:18:16;1.60;;;1.20;;
26963;SDS011;14521;48.148;-1.656;2023-04-24T04:21:39;1.35;;;1.20;;
26963;SDS011;14521;48.148;-1.656;2023-04-24T04:25:25;2.03;;;1.20;;
26963;SDS011;14521;48.148;-1.656;2023-04-24T04:28:47;1.60;;;1.27;;
26963;SDS011;14521;48.148;-1.656;2023-04-24T04:32:10;2.30;;;1.30;;
26963;SDS011;14521;48.148;-1.656;2023-04-24T04:35:33;1.42;;;1.33;;
26963;SDS011;14521;48.148;-1.656;2023-04-24T04:38:56;2.00;;;1.30;;
26963;SDS011;14521;48.148;-1.656;2023-04-24T04:42:36;1.20;;;1.10;;
26963;SDS011;14521;48.148;-1.656;2023-04-24T04:46:02;1.70;;;1.10;;
26963;SDS011;14521;48.148;-1.656;2023-04-24T04:49:25;1.35;;;1.23;;
26963;SDS011;14521;48.148;-1.656;2023-04-24T04:52:50;1.58;;;1.17;;
26963;SDS011;14521;48.148;-1.656;2023-04-24T04:56:22;1.40;;;1.20;;
26963;SDS011;14521;48.148;-1.656;2023-04-24T04:59:45;1.42;;;1.33;;
26963;SDS011;14521;48.148;-1.656;2023-04-24T05:03:16;1.30;;;1.13;;
26963;SDS011;14521;48.148;-1.656;2023-04-24T05:06:49;1.40;;;0.98;;
26963;SDS011;14521;48.148;-1.656;2023-04-24T05:10:13;1.80;;;1.20;;
26963;SDS011;14521;48.148;-1.656;2023-04-24T05:13:35;3.08;;;1.02;;
26963;SDS011;14521;48.148;-1.656;2023-04-24T05:17:21;1.35;;;1.25;;
26963;SDS011;14521;48.148;-1.656;2023-04-24T05:20:44;2.13;;;1.42;;
26963;SDS011;14521;48.148;-1.656;2023-04-24T05:24:07;1.55;;;1.38;;
26963;SDS011;14521;48.148;-1.656;2023-04-24T05:27:56;1.48;;;1.38;;
26963;SDS011;14521;48.148;-1.656;2023-04-24T05:31:18;1.48;;;1.00;;
26963;SDS011;14521;48.148;-1.656;2023-04-24T05:34:40;1.30;;;1.20;;
26963;SDS011;14521;48.148;-1.656;2023-04-24T05:38:03;4.57;;;1.33;;
26963;SDS011;14521;48.148;-1.656;2023-04-24T05:41:26;1.20;;;1.10;;
26963;SDS011;14521;48.148;-1.656;2023-04-24T05:44:48;1.20;;;1.10;;
26963;SDS011;14521;48.148;-1.656;2023-04-24T05:48:14;1.60;;;1.10;;
26963;SDS011;14521;48.148;-1.656;2023-04-24T05:51:37;1.45;;;1.25;;
26963;SDS011;14521;48.148;-1.656;2023-04-24T05:55:01;4.10;;;1.40;;
26963;SDS011;14521;48.148;-1.656;2023-04-24T05:58:27;1.00;;;1.00;;
26963;SDS011;14521;48.148;-1.656;2023-04-24T06:01:49;6.65;;;1.20;;
26963;SDS011;14521;48.148;-1.656;2023-04-24T06:05:15;1.85;;;1.13;;
26963;SDS011;14521;48.148;-1.656;2023-04-24T06:08:39;7.22;;;1.10;;
26963;SDS011;14521;48.148;-1.656;2023-04-24T06:12:01;1.27;;;1.08;;
26963;SDS011;14521;48.148;-1.656;2023-04-24T06:15:38;5.05;;;0.85;;
26963;SDS011;14521;48.148;-1.656;2023-04-24T06:19:03;2.63;;;0.90;;
26963;SDS011;14521;48.148;-1.656;2023-04-24T06:22:26;0.90;;;0.90;;
26963;SDS011;14521;48.148;-1.656;2023-04-24T06:25:48;1.38;;;0.80;;
26963;SDS011;14521;48.148;-1.656;2023-04-24T06:29:11;6.60;;;1.17;;
26963;SDS011;14521;48.148;-1.656;2023-04-24T06:32:33;2.58;;;1.02;;
26963;SDS011;14521;48.148;-1.656;2023-04-24T06:35:56;2.10;;;0.88;;
26963;SDS011;14521;48.148;-1.656;2023-04-24T06:39:18;6.72;;;1.30;;
26963;SDS011;14521;48.148;-1.656;2023-04-24T06:42:40;3.92;;;1.27;;
26963;SDS011;14521;48.148;-1.656;2023-04-24T06:46:04;7.60;;;1.30;;
26963;SDS011;14521;48.148;-1.656;2023-04-24T06:49:26;8.65;;;1.85;;
26963;SDS011;14521;48.148;-1.656;2023-04-24T06:52:48;3.88;;;1.80;;
26963;SDS011;14521;48.148;-1.656;2023-04-24T06:56:11;6.05;;;1.70;;
26963;SDS011;14521;48.148;-1.656;2023-04-24T06:59:33;8.52;;;1.58;;
26963;SDS011;14521;48.148;-1.656;2023-04-24T07:02:56;2.20;;;1.17;;
26963;SDS011;14521;48.148;-1.656;2023-04-24T07:06:19;5.47;;;1.20;;
26963;SDS011;14521;48.148;-1.656;2023-04-24T07:09:44;5.60;;;1.55;;
26963;SDS011;14521;48.148;-1.656;2023-04-24T07:13:07;1.83;;;1.42;;
26963;SDS011;14521;48.148;-1.656;2023-04-24T07:16:30;6.30;;;1.52;;
26963;SDS011;14521;48.148;-1.656;2023-04-24T07:19:52;3.60;;;1.60;;
26963;SDS011;14521;48.148;-1.656;2023-04-24T07:23:14;2.65;;;1.60;;
26963;SDS011;14521;48.148;-1.656;2023-04-24T07:26:37;4.93;;;1.73;;
26963;SDS011;14521;48.148;-1.656;2023-04-24T07:30:00;9.18;;;1.48;;
26963;SDS011;14521;48.148;-1.656;2023-04-24T07:33:23;6.30;;;1.50;;
26963;SDS011;14521;48.148;-1.656;2023-04-24T07:36:46;5.72;;;1.50;;
26963;SDS011;14521;48.148;-1.656;2023-04-24T07:40:09;3.70;;;1.42;;
26963;SDS011;14521;48.148;-1.656;2023-04-24T07:43:31;3.92;;;1.42;;
26963;SDS011;14521;48.148;-1.656;2023-04-24T07:46:53;5.53;;;1.02;;
26963;SDS011;14521;48.148;-1.656;2023-04-24T07:50:16;1.98;;;0.82;;
26963;SDS011;14521;48.148;-1.656;2023-04-24T07:53:38;1.85;;;1.38;;
26963;SDS011;14521;48.148;-1.656;2023-04-24T07:57:01;1.00;;;0.95;;
26963;SDS011;14521;48.148;-1.656;2023-04-24T08:00:23;1.55;;;1.05;;
26963;SDS011;14521;48.148;-1.656;2023-04-24T08:03:45;3.80;;;1.20;;
26963;SDS011;14521;48.148;-1.656;2023-04-24T08:07:08;2.97;;;1.05;;
26963;SDS011;14521;48.148;-1.656;2023-04-24T08:10:30;11.10;;;1.35;;
26963;SDS011;14521;48.148;-1.656;2023-04-24T08:13:53;1.65;;;0.98;;
26963;SDS011;14521;48.148;-1.656;2023-04-24T08:17:17;1.10;;;1.00;;
26963;SDS011;14521;48.148;-1.656;2023-04-24T08:20:39;6.05;;;1.15;;
26963;SDS011;14521;48.148;-1.656;2023-04-24T08:24:01;1.48;;;1.08;;
26963;SDS011;14521;48.148;-1.656;2023-04-24T08:27:27;4.18;;;1.13;;
26963;SDS011;14521;48.148;-1.656;2023-04-24T08:30:49;2.13;;;1.00;;
26963;SDS011;14521;48.148;-1.656;2023-04-24T08:34:16;3.00;;;0.82;;
26963;SDS011;14521;48.148;-1.656;2023-04-24T08:37:38;2.47;;;1.10;;
26963;SDS011;14521;48.148;-1.656;2023-04-24T08:41:01;3.92;;;1.05;;
26963;SDS011;14521;48.148;-1.656;2023-04-24T08:44:23;6.00;;;1.40;;
26963;SDS011;14521;48.148;-1.656;2023-04-24T08:47:46;4.97;;;1.10;;
26963;SDS011;14521;48.148;-1.656;2023-04-24T08:51:09;1.73;;;1.00;;
26963;SDS011;14521;48.148;-1.656;2023-04-24T08:54:34;4.93;;;1.00;;
26963;SDS011;14521;48.148;-1.656;2023-04-24T08:57:56;1.95;;;1.17;;
26963;SDS011;14521;48.148;-1.656;2023-04-24T09:01:20;2.42;;;0.90;;
26963;SDS011;14521;48.148;-1.656;2023-04-24T09:04:44;1.98;;;0.85;;
26963;SDS011;14521;48.148;-1.656;2023-04-24T09:08:08;4.43;;;0.90;;
26963;SDS011;14521;48.148;-1.656;2023-04-24T09:11:33;2.58;;;1.70;;
26963;SDS011;14521;48.148;-1.656;2023-04-24T09:14:56;139.35;;;56.92;;
26963;SDS011;14521;48.148;-1.656;2023-04-24T09:18:20;86.10;;;37.55;;
26963;SDS011;14521;48.148;-1.656;2023-04-24T09:21:42;189.82;;;92.00;;
26963;SDS011;14521;48.148;-1.656;2023-04-24T09:25:08;88.63;;;39.95;;
26963;SDS011;14521;48.148;-1.656;2023-04-24T09:28:37;83.38;;;38.50;;
26963;SDS011;14521;48.148;-1.656;2023-04-24T09:32:12;70.68;;;32.83;;
26963;SDS011;14521;48.148;-1.656;2023-04-24T09:35:41;62.13;;;28.77;;
26963;SDS011;14521;48.148;-1.656;2023-04-24T09:39:14;54.22;;;25.55;;
26963;SDS011;14521;48.148;-1.656;2023-04-24T09:42:37;55.65;;;26.83;;
26963;SDS011;14521;48.148;-1.656;2023-04-24T09:46:04;51.22;;;23.95;;
26963;SDS011;14521;48.148;-1.656;2023-04-24T09:49:31;46.72;;;22.17;;
26963;SDS011;14521;48.148;-1.656;2023-04-24T09:52:59;49.17;;;21.83;;
26963;SDS011;14521;48.148;-1.656;2023-04-24T09:56:25;45.20;;;20.95;;
26963;SDS011;14521;48.148;-1.656;2023-04-24T09:59:48;49.38;;;19.42;;
26963;SDS011;14521;48.148;-1.656;2023-04-24T10:03:14;39.78;;;19.70;;
26963;SDS011;14521;48.148;-1.656;2023-04-24T10:10:04;32.90;;;17.17;;
26963;SDS011;14521;48.148;-1.656;2023-04-24T10:13:28;33.53;;;16.55;;
26963;SDS011;14521;48.148;-1.656;2023-04-24T10:16:53;35.33;;;16.63;;
26963;SDS011;14521;48.148;-1.656;2023-04-24T10:20:16;29.35;;;14.75;;
26963;SDS011;14521;48.148;-1.656;2023-04-24T10:23:39;37.65;;;15.55;;
26963;SDS011;14521;48.148;-1.656;2023-04-24T10:27:03;24.48;;;13.27;;
26963;SDS011;14521;48.148;-1.656;2023-04-24T10:30:30;28.83;;;12.48;;
26963;SDS011;14521;48.148;-1.656;2023-04-24T10:33:57;22.88;;;12.23;;
26963;SDS011;14521;48.148;-1.656;2023-04-24T10:37:21;27.17;;;11.43;;
26963;SDS011;14521;48.148;-1.656;2023-04-24T10:40:45;22.40;;;11.40;;
26963;SDS011;14521;48.148;-1.656;2023-04-24T10:44:07;20.88;;;10.85;;
26963;SDS011;14521;48.148;-1.656;2023-04-24T10:47:40;18.52;;;10.85;;
26963;SDS011;14521;48.148;-1.656;2023-04-24T10:51:04;20.75;;;9.32;;
26963;SDS011;14521;48.148;-1.656;2023-04-24T10:54:27;24.42;;;9.20;;
26963;SDS011;14521;48.148;-1.656;2023-04-24T10:58:03;21.73;;;8.48;;
26963;SDS011;14521;48.148;-1.656;2023-04-24T11:01:32;13.40;;;7.78;;
26963;SDS011;14521;48.148;-1.656;2023-04-24T11:04:55;17.23;;;7.47;;
26963;SDS011;14521;48.148;-1.656;2023-04-24T11:08:24;15.43;;;7.10;;
26963;SDS011;14521;48.148;-1.656;2023-04-24T11:11:48;12.95;;;7.10;;
26963;SDS011;14521;48.148;-1.656;2023-04-24T11:15:11;8.48;;;5.65;;
26963;SDS011;14521;48.148;-1.656;2023-04-24T11:18:38;10.00;;;5.85;;
26963;SDS011;14521;48.148;-1.656;2023-04-24T11:22:02;12.02;;;5.82;;
26963;SDS011;14521;48.148;-1.656;2023-04-24T11:25:28;12.63;;;5.15;;
26963;SDS011;14521;48.148;-1.656;2023-04-24T11:28:52;14.93;;;6.15;;
26963;SDS011;14521;48.148;-1.656;2023-04-24T11:35:55;10.73;;;6.60;;
26963;SDS011;14521;48.148;-1.656;2023-04-24T11:39:18;9.15;;;5.90;;
26963;SDS011;14521;48.148;-1.656;2023-04-24T11:42:41;9.70;;;5.35;;
26963;SDS011;14521;48.148;-1.656;2023-04-24T11:46:08;9.52;;;5.93;;
26963;SDS011;14521;48.148;-1.656;2023-04-24T11:49:30;10.13;;;4.90;;
26963;SDS011;14521;48.148;-1.656;2023-04-24T11:52:53;9.27;;;4.63;;
26963;SDS011;14521;48.148;-1.656;2023-04-24T11:56:18;8.23;;;4.22;;
26963;SDS011;14521;48.148;-1.656;2023-04-24T11:59:41;8.05;;;4.25;;
26963;SDS011;14521;48.148;-1.656;2023-04-24T12:03:04;11.80;;;3.05;;
26963;SDS011;14521;48.148;-1.656;2023-04-24T12:06:34;4.18;;;3.65;;
26963;SDS011;14521;48.148;-1.656;2023-04-24T12:09:57;6.50;;;3.97;;
26963;SDS011;14521;48.148;-1.656;2023-04-24T12:16:47;7.70;;;3.50;;
26963;SDS011;14521;48.148;-1.656;2023-04-24T12:20:10;4.97;;;3.08;;
26963;SDS011;14521;48.148;-1.656;2023-04-24T12:23:36;8.25;;;3.15;;
26963;SDS011;14521;48.148;-1.656;2023-04-24T12:26:59;5.18;;;3.22;;
26963;SDS011;14521;48.148;-1.656;2023-04-24T12:30:26;5.38;;;3.65;;
26963;SDS011;14521;48.148;-1.656;2023-04-24T12:33:52;4.50;;;2.90;;
26963;SDS011;14521;48.148;-1.656;2023-04-24T12:37:14;4.03;;;2.92;;
26963;SDS011;14521;48.148;-1.656;2023-04-24T12:40:36;6.88;;;2.80;;
26963;SDS011;14521;48.148;-1.656;2023-04-24T12:43:59;4.68;;;2.67;;
26963;SDS011;14521;48.148;-1.656;2023-04-24T12:47:21;2.78;;;2.58;;
26963;SDS011;14521;48.148;-1.656;2023-04-24T12:50:44;3.30;;;2.40;;
26963;SDS011;14521;48.148;-1.656;2023-04-24T12:54:08;2.80;;;2.50;;
26963;SDS011;14521;48.148;-1.656;2023-04-24T12:57:30;3.45;;;2.80;;
26963;SDS011;14521;48.148;-1.656;2023-04-24T13:00:52;4.35;;;2.38;;
26963;SDS011;14521;48.148;-1.656;2023-04-24T13:04:16;3.80;;;2.20;;
26963;SDS011;14521;48.148;-1.656;2023-04-24T13:07:39;4.63;;;2.20;;
26963;SDS011;14521;48.148;-1.656;2023-04-24T13:11:01;2.67;;;2.47;;
26963;SDS011;14521;48.148;-1.656;2023-04-24T13:14:24;3.70;;;2.30;;
26963;SDS011;14521;48.148;-1.656;2023-04-24T13:17:47;2.17;;;1.98;;
26963;SDS011;14521;48.148;-1.656;2023-04-24T13:21:09;2.80;;;1.90;;
26963;SDS011;14521;48.148;-1.656;2023-04-24T13:24:32;4.50;;;2.10;;
26963;SDS011;14521;48.148;-1.656;2023-04-24T13:27:54;3.50;;;2.25;;
26963;SDS011;14521;48.148;-1.656;2023-04-24T13:31:17;2.25;;;1.80;;
26963;SDS011;14521;48.148;-1.656;2023-04-24T13:34:39;1.95;;;1.83;;
26963;SDS011;14521;48.148;-1.656;2023-04-24T13:38:01;8.82;;;1.90;;
26963;SDS011;14521;48.148;-1.656;2023-04-24T13:41:27;4.22;;;1.88;;
26963;SDS011;14521;48.148;-1.656;2023-04-24T13:44:49;2.33;;;1.67;;
26963;SDS011;14521;48.148;-1.656;2023-04-24T13:48:12;3.70;;;1.77;;
26963;SDS011;14521;48.148;-1.656;2023-04-24T13:51:37;2.10;;;1.90;;
26963;SDS011;14521;48.148;-1.656;2023-04-24T13:55:00;6.20;;;1.70;;
26963;SDS011;14521;48.148;-1.656;2023-04-24T13:58:22;1.88;;;1.58;;
26963;SDS011;14521;48.148;-1.656;2023-04-24T14:01:44;2.83;;;1.77;;
26963;SDS011;14521;48.148;-1.656;2023-04-24T14:05:07;2.50;;;1.50;;
26963;SDS011;14521;48.148;-1.656;2023-04-24T14:08:29;2.22;;;1.48;;
26963;SDS011;14521;48.148;-1.656;2023-04-24T14:11:52;4.40;;;1.25;;
26963;SDS011;14521;48.148;-1.656;2023-04-24T14:15:14;2.10;;;1.60;;
26963;SDS011;14521;48.148;-1.656;2023-04-24T14:18:37;2.70;;;1.55;;
26963;SDS011;14521;48.148;-1.656;2023-04-24T14:21:59;5.75;;;1.77;;
26963;SDS011;14521;48.148;-1.656;2023-04-24T14:25:22;1.70;;;1.20;;
26963;SDS011;14521;48.148;-1.656;2023-04-24T14:28:44;9.93;;;1.80;;
26963;SDS011;14521;48.148;-1.656;2023-04-24T14:32:06;2.10;;;1.40;;
26963;SDS011;14521;48.148;-1.656;2023-04-24T14:35:30;2.53;;;1.20;;
26963;SDS011;14521;48.148;-1.656;2023-04-24T14:38:56;6.47;;;1.30;;
26963;SDS011;14521;48.148;-1.656;2023-04-24T14:42:19;3.03;;;1.25;;
26963;SDS011;14521;48.148;-1.656;2023-04-24T14:45:41;2.22;;;1.42;;
26963;SDS011;14521;48.148;-1.656;2023-04-24T14:49:03;4.15;;;1.30;;
26963;SDS011;14521;48.148;-1.656;2023-04-24T14:52:26;2.70;;;1.55;;
26963;SDS011;14521;48.148;-1.656;2023-04-24T14:55:48;1.30;;;1.13;;
26963;SDS011;14521;48.148;-1.656;2023-04-24T14:59:11;4.28;;;1.20;;
26963;SDS011;14521;48.148;-1.656;2023-04-24T15:02:33;2.05;;;1.10;;
26963;SDS011;14521;48.148;-1.656;2023-04-24T15:05:58;1.55;;;1.10;;
26963;SDS011;14521;48.148;-1.656;2023-04-24T15:09:21;2.55;;;1.13;;
26963;SDS011;14521;48.148;-1.656;2023-04-24T15:12:44;3.45;;;1.17;;
26963;SDS011;14521;48.148;-1.656;2023-04-24T15:16:06;2.30;;;1.10;;
26963;SDS011;14521;48.148;-1.656;2023-04-24T15:19:29;2.25;;;1.05;;
26963;SDS011;14521;48.148;-1.656;2023-04-24T15:22:51;1.33;;;1.20;;
26963;SDS011;14521;48.148;-1.656;2023-04-24T15:26:13;3.20;;;0.93;;
26963;SDS011;14521;48.148;-1.656;2023-04-24T15:29:36;1.40;;;0.88;;
26963;SDS011;14521;48.148;-1.656;2023-04-24T15:32:59;2.08;;;1.00;;
26963;SDS011;14521;48.148;-1.656;2023-04-24T15:36:22;2.60;;;1.00;;
26963;SDS011;14521;48.148;-1.656;2023-04-24T15:39:44;0.80;;;0.80;;
26963;SDS011;14521;48.148;-1.656;2023-04-24T15:43:07;4.18;;;1.30;;
26963;SDS011;14521;48.148;-1.656;2023-04-24T15:46:29;3.28;;;1.10;;
26963;SDS011;14521;48.148;-1.656;2023-04-24T15:49:52;2.00;;;1.10;;
26963;SDS011;14521;48.148;-1.656;2023-04-24T15:53:15;1.83;;;0.90;;
26963;SDS011;14521;48.148;-1.656;2023-04-24T15:56:43;3.65;;;1.10;;
26963;SDS011;14521;48.148;-1.656;2023-04-24T16:00:06;2.13;;;1.27;;
26963;SDS011;14521;48.148;-1.656;2023-04-24T16:03:33;1.88;;;0.63;;
26963;SDS011;14521;48.148;-1.656;2023-04-24T16:06:55;2.70;;;0.85;;
26963;SDS011;14521;48.148;-1.656;2023-04-24T16:10:18;1.20;;;0.98;;
26963;SDS011;14521;48.148;-1.656;2023-04-24T16:13:40;2.80;;;1.15;;
26963;SDS011;14521;48.148;-1.656;2023-04-24T16:17:03;3.22;;;1.00;;
26963;SDS011;14521;48.148;-1.656;2023-04-24T16:20:26;1.13;;;0.98;;
26963;SDS011;14521;48.148;-1.656;2023-04-24T16:23:48;4.75;;;1.00;;
26963;SDS011;14521;48.148;-1.656;2023-04-24T16:27:10;0.85;;;0.80;;
26963;SDS011;14521;48.148;-1.656;2023-04-24T16:30:33;1.75;;;0.80;;
26963;SDS011;14521;48.148;-1.656;2023-04-24T16:33:57;1.33;;;0.90;;
26963;SDS011;14521;48.148;-1.656;2023-04-24T16:37:19;1.10;;;1.00;;
26963;SDS011;14521;48.148;-1.656;2023-04-24T16:40:42;1.23;;;0.70;;
26963;SDS011;14521;48.148;-1.656;2023-04-24T16:44:04;1.35;;;0.80;;
26963;SDS011;14521;48.148;-1.656;2023-04-24T16:47:27;4.53;;;0.80;;
26963;SDS011;14521;48.148;-1.656;2023-04-24T16:50:50;1.38;;;0.68;;
26963;SDS011;14521;48.148;-1.656;2023-04-24T16:54:12;1.40;;;0.90;;
26963;SDS011;14521;48.148;-1.656;2023-04-24T16:57:34;1.55;;;1.00;;
26963;SDS011;14521;48.148;-1.656;2023-04-24T17:00:57;2.72;;;0.90;;
26963;SDS011;14521;48.148;-1.656;2023-04-24T17:04:19;0.70;;;0.70;;
26963;SDS011;14521;48.148;-1.656;2023-04-24T17:07:41;1.58;;;0.93;;
26963;SDS011;14521;48.148;-1.656;2023-04-24T17:11:04;1.20;;;0.85;;
26963;SDS011;14521;48.148;-1.656;2023-04-24T17:14:26;1.83;;;0.80;;
26963;SDS011;14521;48.148;-1.656;2023-04-24T17:17:48;2.05;;;0.90;;
26963;SDS011;14521;48.148;-1.656;2023-04-24T17:21:11;1.17;;;0.65;;
26963;SDS011;14521;48.148;-1.656;2023-04-24T17:24:33;3.17;;;0.90;;
26963;SDS011;14521;48.148;-1.656;2023-04-24T17:27:55;1.48;;;0.90;;
26963;SDS011;14521;48.148;-1.656;2023-04-24T17:31:18;3.03;;;0.90;;
26963;SDS011;14521;48.148;-1.656;2023-04-24T17:34:40;6.90;;;0.82;;
26963;SDS011;14521;48.148;-1.656;2023-04-24T17:38:02;0.80;;;0.80;;
26963;SDS011;14521;48.148;-1.656;2023-04-24T17:41:25;2.00;;;0.82;;
26963;SDS011;14521;48.148;-1.656;2023-04-24T17:44:47;5.95;;;0.70;;
26963;SDS011;14521;48.148;-1.656;2023-04-24T17:48:10;1.65;;;0.80;;
26963;SDS011;14521;48.148;-1.656;2023-04-24T17:51:33;1.13;;;0.68;;
26963;SDS011;14521;48.148;-1.656;2023-04-24T17:54:55;3.22;;;0.98;;
26963;SDS011;14521;48.148;-1.656;2023-04-24T17:58:17;2.25;;;1.10;;
26963;SDS011;14521;48.148;-1.656;2023-04-24T18:01:40;2.63;;;0.73;;
26963;SDS011;14521;48.148;-1.656;2023-04-24T18:05:02;4.97;;;1.00;;
26963;SDS011;14521;48.148;-1.656;2023-04-24T18:08:25;14.07;;;3.33;;
26963;SDS011;14521;48.148;-1.656;2023-04-24T18:11:47;4.75;;;2.20;;
26963;SDS011;14521;48.148;-1.656;2023-04-24T18:15:10;14.10;;;3.30;;
26963;SDS011;14521;48.148;-1.656;2023-04-24T18:21:58;11.68;;;3.63;;
26963;SDS011;14521;48.148;-1.656;2023-04-24T18:25:20;9.38;;;3.95;;
26963;SDS011;14521;48.148;-1.656;2023-04-24T18:28:47;8.88;;;3.20;;
26963;SDS011;14521;48.148;-1.656;2023-04-24T18:32:10;8.02;;;2.75;;
26963;SDS011;14521;48.148;-1.656;2023-04-24T18:35:32;7.90;;;3.28;;
26963;SDS011;14521;48.148;-1.656;2023-04-24T18:38:54;6.13;;;2.85;;
26963;SDS011;14521;48.148;-1.656;2023-04-24T18:42:17;8.52;;;2.58;;
26963;SDS011;14521;48.148;-1.656;2023-04-24T18:45:39;7.43;;;2.60;;
26963;SDS011;14521;48.148;-1.656;2023-04-24T18:49:02;6.53;;;2.72;;
26963;SDS011;14521;48.148;-1.656;2023-04-24T18:52:25;7.90;;;1.80;;
26963;SDS011;14521;48.148;-1.656;2023-04-24T18:55:47;7.15;;;2.30;;
26963;SDS011;14521;48.148;-1.656;2023-04-24T18:59:10;2.90;;;1.80;;
26963;SDS011;14521;48.148;-1.656;2023-04-24T19:02:32;13.70;;;2.38;;
26963;SDS011;14521;48.148;-1.656;2023-04-24T19:05:55;5.72;;;1.92;;
26963;SDS011;14521;48.148;-1.656;2023-04-24T19:09:17;10.65;;;1.95;;
26963;SDS011;14521;48.148;-1.656;2023-04-24T19:12:39;6.95;;;2.30;;
26963;SDS011;14521;48.148;-1.656;2023-04-24T19:16:02;4.68;;;1.75;;
26963;SDS011;14521;48.148;-1.656;2023-04-24T19:19:24;3.28;;;1.77;;
26963;SDS011;14521;48.148;-1.656;2023-04-24T19:22:48;4.53;;;2.03;;
26963;SDS011;14521;48.148;-1.656;2023-04-24T19:26:11;6.15;;;1.88;;
26963;SDS011;14521;48.148;-1.656;2023-04-24T19:29:35;3.65;;;1.40;;
26963;SDS011;14521;48.148;-1.656;2023-04-24T19:32:57;6.85;;;1.52;;
26963;SDS011;14521;48.148;-1.656;2023-04-24T19:36:19;7.38;;;1.70;;
26963;SDS011;14521;48.148;-1.656;2023-04-24T19:39:42;6.68;;;1.80;;
26963;SDS011;14521;48.148;-1.656;2023-04-24T19:43:04;4.13;;;1.48;;
26963;SDS011;14521;48.148;-1.656;2023-04-24T19:46:26;4.50;;;1.80;;
26963;SDS011;14521;48.148;-1.656;2023-04-24T19:49:49;8.02;;;1.75;;
26963;SDS011;14521;48.148;-1.656;2023-04-24T19:53:11;3.63;;;1.35;;
26963;SDS011;14521;48.148;-1.656;2023-04-24T19:56:35;6.65;;;1.70;;
26963;SDS011;14521;48.148;-1.656;2023-04-24T19:59:57;4.03;;;1.58;;
26963;SDS011;14521;48.148;-1.656;2023-04-24T20:03:19;3.03;;;1.38;;
26963;SDS011;14521;48.148;-1.656;2023-04-24T20:06:54;3.33;;;1.40;;
26963;SDS011;14521;48.148;-1.656;2023-04-24T20:10:16;4.80;;;1.27;;
26963;SDS011;14521;48.148;-1.656;2023-04-24T20:13:39;1.17;;;1.00;;
26963;SDS011;14521;48.148;-1.656;2023-04-24T20:17:01;1.92;;;1.13;;